createdAt,value
2022-08-28T00:00:53.150Z,0
2022-08-28T00:01:53.717Z,0
2022-08-28T00:02:54.379Z,0
2022-08-28T00:03:54.925Z,0
2022-08-28T00:04:55.550Z,0
2022-08-28T00:05:56.119Z,0
2022-08-28T00:06:56.714Z,0
2022-08-28T00:07:57.317Z,0
2022-08-28T00:08:57.909Z,0
2022-08-28T00:09:58.508Z,0
2022-08-28T00:10:59.104Z,0
2022-08-28T00:11:59.700Z,0
2022-08-28T00:13:00.296Z,0
2022-08-28T00:14:00.889Z,0
2022-08-28T00:15:01.488Z,0
2022-08-28T00:16:02.165Z,0
2022-08-28T00:17:02.704Z,0
2022-08-28T00:18:03.299Z,0
2022-08-28T00:19:03.895Z,0
2022-08-28T00:20:04.492Z,0
2022-08-28T00:21:05.088Z,0
2022-08-28T00:22:05.684Z,0
2022-08-28T00:23:06.279Z,0
2022-08-28T00:24:06.899Z,0
2022-08-28T00:25:07.513Z,0
2022-08-28T00:26:08.108Z,0
2022-08-28T00:27:08.703Z,0
2022-08-28T00:28:09.322Z,0
2022-08-28T00:29:09.894Z,0
2022-08-28T00:30:10.492Z,0
2022-08-28T00:31:11.176Z,0
2022-08-28T00:32:11.742Z,0
2022-08-28T00:33:12.338Z,0
2022-08-28T00:34:12.936Z,0
2022-08-28T00:35:13.533Z,0
2022-08-28T00:36:14.229Z,0
2022-08-28T00:37:14.845Z,0
2022-08-28T00:38:15.471Z,0
2022-08-28T00:39:16.402Z,0
2022-08-28T00:40:17.677Z,0
2022-08-28T00:41:19.219Z,0
2022-08-28T00:42:20.812Z,0
2022-08-28T00:43:21.406Z,0
2022-08-28T00:44:22.004Z,0
2022-08-28T00:45:22.596Z,0
2022-08-28T00:46:23.277Z,0
2022-08-28T00:47:23.831Z,0
2022-08-28T00:48:24.657Z,0
2022-08-28T00:49:25.272Z,0
2022-08-28T00:50:25.868Z,0
2022-08-28T00:51:26.464Z,0
2022-08-28T00:52:27.064Z,0
2022-08-28T00:53:31.649Z,0
2022-08-28T00:54:29.265Z,0
2022-08-28T00:55:29.859Z,0
2022-08-28T00:56:30.456Z,0
2022-08-28T00:57:31.051Z,0
2022-08-28T00:58:31.648Z,0
2022-08-28T00:59:32.242Z,0
2022-08-28T01:00:32.853Z,0
2022-08-28T01:01:33.523Z,0
2022-08-28T01:02:34.147Z,0
2022-08-28T01:03:34.692Z,0
2022-08-28T01:04:35.289Z,0
2022-08-28T01:05:36.832Z,0
2022-08-28T01:06:37.428Z,0
2022-08-28T01:07:38.026Z,0
2022-08-28T01:08:38.629Z,0
2022-08-28T01:09:39.235Z,0
2022-08-28T01:10:39.833Z,0
2022-08-28T01:11:40.426Z,0
2022-08-28T01:12:41.023Z,0
2022-08-28T01:13:41.616Z,0
2022-08-28T01:14:42.214Z,0
2022-08-28T01:15:42.825Z,0
2022-08-28T01:16:43.404Z,0
2022-08-28T01:17:44.001Z,0
2022-08-28T01:18:44.597Z,0
2022-08-28T01:19:45.198Z,0
2022-08-28T01:20:45.791Z,0
2022-08-28T01:21:46.387Z,0
2022-08-28T01:22:46.982Z,0
2022-08-28T01:23:47.578Z,0
2022-08-28T01:24:48.175Z,0
2022-08-28T01:25:48.770Z,0
2022-08-28T01:26:49.364Z,0
2022-08-28T01:27:49.963Z,0
2022-08-28T01:28:50.557Z,0
2022-08-28T01:29:51.172Z,0
2022-08-28T01:30:51.824Z,0
2022-08-28T01:31:52.368Z,0
2022-08-28T01:32:52.984Z,0
2022-08-28T01:33:53.582Z,0
2022-08-28T01:34:54.197Z,0
2022-08-28T01:35:54.793Z,0
2022-08-28T01:36:55.392Z,0
2022-08-28T01:37:56.980Z,0
2022-08-28T01:38:57.573Z,0
2022-08-28T01:39:58.229Z,0
2022-08-28T01:40:58.813Z,0
2022-08-28T01:41:59.411Z,0
2022-08-28T01:43:00.027Z,0
2022-08-28T01:44:00.626Z,0
2022-08-28T01:45:01.221Z,0
2022-08-28T01:46:01.900Z,0
2022-08-28T01:47:02.463Z,0
2022-08-28T01:48:03.060Z,0
2022-08-28T01:49:03.656Z,0
2022-08-28T01:50:04.254Z,0
2022-08-28T01:51:04.852Z,0
2022-08-28T01:52:05.466Z,0
2022-08-28T01:53:06.797Z,0
2022-08-28T01:54:08.382Z,0
2022-08-28T01:55:09.969Z,0
2022-08-28T01:56:10.571Z,0
2022-08-28T01:57:11.184Z,0
2022-08-28T01:58:12.018Z,0
2022-08-28T01:59:12.597Z,0
2022-08-28T02:00:13.191Z,0
2022-08-28T02:01:13.892Z,0
2022-08-28T02:02:14.484Z,0
2022-08-28T02:03:15.081Z,0
2022-08-28T02:04:15.721Z,0
2022-08-28T02:05:16.304Z,0
2022-08-28T02:06:16.903Z,0
2022-08-28T02:07:17.495Z,0
2022-08-28T02:08:18.092Z,0
2022-08-28T02:09:18.689Z,0
2022-08-28T02:10:19.292Z,0
2022-08-28T02:11:19.881Z,0
2022-08-28T02:12:20.478Z,0
2022-08-28T02:13:21.074Z,0
2022-08-28T02:14:22.665Z,0
2022-08-28T02:15:23.656Z,0
2022-08-28T02:16:24.234Z,0
2022-08-28T02:17:24.829Z,0
2022-08-28T02:18:25.446Z,0
2022-08-28T02:19:26.060Z,0
2022-08-28T02:20:26.655Z,0
2022-08-28T02:21:27.270Z,0
2022-08-28T02:22:27.867Z,0
2022-08-28T02:23:28.466Z,0
2022-08-28T02:24:29.059Z,0
2022-08-28T02:25:29.657Z,0
2022-08-28T02:26:30.254Z,0
2022-08-28T02:27:30.851Z,0
2022-08-28T02:28:31.446Z,0
2022-08-28T02:29:32.040Z,0
2022-08-28T02:30:32.639Z,0
2022-08-28T02:31:33.236Z,0
2022-08-28T02:32:33.833Z,0
2022-08-28T02:33:34.428Z,0
2022-08-28T02:34:35.024Z,0
2022-08-28T02:35:35.622Z,0
2022-08-28T02:36:36.217Z,0
2022-08-28T02:37:36.815Z,0
2022-08-28T02:38:37.412Z,0
2022-08-28T02:39:38.006Z,0
2022-08-28T02:40:38.668Z,0
2022-08-28T02:41:39.266Z,0
2022-08-28T02:42:39.880Z,0
2022-08-28T02:43:40.474Z,0
2022-08-28T02:44:41.069Z,0
2022-08-28T02:45:41.664Z,0
2022-08-28T02:46:42.261Z,0
2022-08-28T02:47:42.858Z,0
2022-08-28T02:48:43.453Z,0
2022-08-28T02:49:44.048Z,0
2022-08-28T02:50:44.645Z,0
2022-08-28T02:51:45.241Z,0
2022-08-28T02:52:45.835Z,0
2022-08-28T02:53:46.431Z,0
2022-08-28T02:54:47.026Z,0
2022-08-28T02:55:47.622Z,0
2022-08-28T02:56:48.220Z,0
2022-08-28T02:57:48.824Z,0
2022-08-28T02:58:49.412Z,0
2022-08-28T02:59:50.007Z,0
2022-08-28T03:00:50.606Z,0
2022-08-28T03:01:51.246Z,0
2022-08-28T03:02:51.867Z,0
2022-08-28T03:03:52.426Z,0
2022-08-28T03:04:53.023Z,0
2022-08-28T03:05:53.628Z,0
2022-08-28T03:06:54.215Z,0
2022-08-28T03:07:54.813Z,0
2022-08-28T03:08:55.409Z,0
2022-08-28T03:09:56.004Z,0
2022-08-28T03:10:56.602Z,0
2022-08-28T03:11:57.204Z,0
2022-08-28T03:12:57.794Z,0
2022-08-28T03:13:58.392Z,0
2022-08-28T03:14:59.007Z,0
2022-08-28T03:15:59.602Z,0
2022-08-28T03:17:00.245Z,0
2022-08-28T03:18:00.792Z,0
2022-08-28T03:19:01.475Z,0
2022-08-28T03:20:02.067Z,0
2022-08-28T03:21:02.664Z,0
2022-08-28T03:22:03.258Z,0
2022-08-28T03:23:03.858Z,0
2022-08-28T03:24:04.450Z,0
2022-08-28T03:25:05.048Z,0
2022-08-28T03:26:05.641Z,0
2022-08-28T03:27:06.238Z,0
2022-08-28T03:28:06.918Z,0
2022-08-28T03:29:07.517Z,0
2022-08-28T03:30:08.116Z,0
2022-08-28T03:31:08.764Z,0
2022-08-28T03:32:09.342Z,0
2022-08-28T03:33:09.941Z,0
2022-08-28T03:34:10.537Z,0
2022-08-28T03:35:11.136Z,0
2022-08-28T03:36:11.864Z,0
2022-08-28T03:37:12.460Z,0
2022-08-28T03:38:13.149Z,0
2022-08-28T03:39:13.762Z,0
2022-08-28T03:40:14.406Z,0
2022-08-28T03:41:14.951Z,0
2022-08-28T03:42:15.545Z,0
2022-08-28T03:43:16.178Z,0
2022-08-28T03:44:16.792Z,0
2022-08-28T03:45:17.388Z,0
2022-08-28T03:46:18.071Z,0
2022-08-28T03:47:18.657Z,0
2022-08-28T03:48:20.246Z,0
2022-08-28T03:49:20.857Z,0
2022-08-28T03:50:21.497Z,0
2022-08-28T03:51:22.460Z,0
2022-08-28T03:52:23.685Z,4
2022-08-28T03:53:24.283Z,4
2022-08-28T03:54:24.899Z,4
2022-08-28T03:55:25.496Z,4
2022-08-28T03:56:26.095Z,4
2022-08-28T03:57:26.691Z,4
2022-08-28T03:58:27.286Z,8
2022-08-28T03:59:29.791Z,8
2022-08-28T04:00:29.468Z,8
2022-08-28T04:01:30.113Z,8
2022-08-28T04:02:30.678Z,12
2022-08-28T04:03:31.336Z,12
2022-08-28T04:04:31.881Z,16
2022-08-28T04:05:32.480Z,16
2022-08-28T04:06:33.077Z,24
2022-08-28T04:07:34.666Z,28
2022-08-28T04:08:35.262Z,32
2022-08-28T04:09:35.862Z,36
2022-08-28T04:10:36.458Z,44
2022-08-28T04:11:37.056Z,52
2022-08-28T04:12:37.650Z,60
2022-08-28T04:13:38.247Z,68
2022-08-28T04:14:38.843Z,80
2022-08-28T04:15:39.465Z,92
2022-08-28T04:16:40.112Z,112
2022-08-28T04:17:40.719Z,128
2022-08-28T04:18:41.317Z,144
2022-08-28T04:19:41.917Z,164
2022-08-28T04:20:42.512Z,188
2022-08-28T04:21:44.107Z,216
2022-08-28T04:22:45.261Z,244
2022-08-28T04:23:45.804Z,272
2022-08-28T04:24:46.401Z,300
2022-08-28T04:25:47.002Z,324
2022-08-28T04:26:47.599Z,356
2022-08-28T04:27:48.200Z,384
2022-08-28T04:28:48.804Z,424
2022-08-28T04:29:49.400Z,460
2022-08-28T04:30:49.998Z,488
2022-08-28T04:31:50.668Z,520
2022-08-28T04:32:51.214Z,556
2022-08-28T04:33:51.834Z,600
2022-08-28T04:34:52.430Z,656
2022-08-28T04:35:53.029Z,716
2022-08-28T04:36:53.628Z,784
2022-08-28T04:37:57.528Z,860
2022-08-28T04:38:55.819Z,952
2022-08-28T04:39:56.444Z,1040
2022-08-28T04:40:57.027Z,1148
2022-08-28T04:41:58.617Z,1256
2022-08-28T04:42:59.217Z,1352
2022-08-28T04:43:59.818Z,1424
2022-08-28T04:45:00.414Z,1476
2022-08-28T04:46:01.083Z,1504
2022-08-28T04:47:01.643Z,1532
2022-08-28T04:48:03.329Z,1560
2022-08-28T04:49:04.062Z,1592
2022-08-28T04:50:04.662Z,1672
2022-08-28T04:51:05.262Z,1716
2022-08-28T04:52:05.864Z,1776
2022-08-28T04:53:06.464Z,1848
2022-08-28T04:54:07.065Z,1928
2022-08-28T04:55:07.667Z,2012
2022-08-28T04:56:08.266Z,2112
2022-08-28T04:57:08.867Z,2208
2022-08-28T04:58:09.921Z,2292
2022-08-28T04:59:10.518Z,2404
2022-08-28T05:00:11.121Z,2476
2022-08-28T05:01:11.808Z,2532
2022-08-28T05:02:12.495Z,2616
2022-08-28T05:03:13.049Z,2688
2022-08-28T05:04:13.651Z,2724
2022-08-28T05:05:14.250Z,2792
2022-08-28T05:06:14.852Z,2928
2022-08-28T05:07:15.450Z,3060
2022-08-28T05:08:16.054Z,3180
2022-08-28T05:09:16.658Z,3352
2022-08-28T05:10:17.256Z,3612
2022-08-28T05:11:33.121Z,3872
2022-08-28T05:12:19.454Z,4040
2022-08-28T05:13:20.056Z,4180
2022-08-28T05:14:20.658Z,4388
2022-08-28T05:15:21.257Z,4500
2022-08-28T05:16:21.926Z,4556
2022-08-28T05:17:22.519Z,4580
2022-08-28T05:18:23.121Z,4668
2022-08-28T05:19:23.721Z,4740
2022-08-28T05:20:24.326Z,4748
2022-08-28T05:21:24.925Z,4732
2022-08-28T05:22:25.529Z,4776
2022-08-28T05:23:26.145Z,4792
2022-08-28T05:24:26.747Z,4872
2022-08-28T05:25:27.349Z,5024
2022-08-28T05:26:29.726Z,5176
2022-08-28T05:27:29.540Z,5316
2022-08-28T05:28:30.142Z,5372
2022-08-28T05:29:30.740Z,5452
2022-08-28T05:30:31.345Z,5608
2022-08-28T05:31:31.984Z,5736
2022-08-28T05:32:32.549Z,5940
2022-08-28T05:33:33.146Z,6148
2022-08-28T05:34:33.748Z,6260
2022-08-28T05:35:34.347Z,6276
2022-08-28T05:36:34.947Z,6260
2022-08-28T05:37:35.552Z,6180
2022-08-28T05:38:36.149Z,6060
2022-08-28T05:39:36.751Z,5824
2022-08-28T05:40:37.383Z,5500
2022-08-28T05:41:37.951Z,5296
2022-08-28T05:42:39.169Z,5252
2022-08-28T05:43:39.782Z,5244
2022-08-28T05:44:40.382Z,5216
2022-08-28T05:45:41.009Z,5180
2022-08-28T05:46:41.584Z,5192
2022-08-28T05:47:42.210Z,5356
2022-08-28T05:48:42.809Z,5696
2022-08-28T05:49:43.412Z,6240
2022-08-28T05:50:47.309Z,6724
2022-08-28T05:51:45.610Z,7024
2022-08-28T05:52:46.209Z,7300
2022-08-28T05:53:46.809Z,7608
2022-08-28T05:54:47.412Z,7940
2022-08-28T05:55:51.801Z,8380
2022-08-28T05:56:49.626Z,8856
2022-08-28T05:57:50.231Z,9344
2022-08-28T05:58:50.833Z,9880
2022-08-28T05:59:51.435Z,10108
2022-08-28T06:00:52.037Z,10184
2022-08-28T06:01:52.779Z,10372
2022-08-28T06:02:53.253Z,10348
2022-08-28T06:03:53.965Z,10132
2022-08-28T06:04:54.568Z,10208
2022-08-28T06:05:55.170Z,10384
2022-08-28T06:06:55.772Z,10292
2022-08-28T06:07:56.493Z,9908
2022-08-28T06:08:58.596Z,9716
2022-08-28T06:09:58.588Z,10104
2022-08-28T06:10:59.189Z,10708
2022-08-28T06:12:00.498Z,11060
2022-08-28T06:13:02.093Z,11272
2022-08-28T06:14:03.465Z,11212
2022-08-28T06:15:04.088Z,11216
2022-08-28T06:16:04.721Z,11356
2022-08-28T06:17:05.307Z,11932
2022-08-28T06:18:05.975Z,12068
2022-08-28T06:19:06.544Z,12736
2022-08-28T06:20:07.148Z,13100
2022-08-28T06:21:07.750Z,13564
2022-08-28T06:22:08.355Z,12816
2022-08-28T06:23:08.955Z,13496
2022-08-28T06:24:09.557Z,13160
2022-08-28T06:25:10.160Z,13160
2022-08-28T06:26:11.119Z,13576
2022-08-28T06:27:11.666Z,14192
2022-08-28T06:28:12.395Z,15556
2022-08-28T06:29:13.007Z,15412
2022-08-28T06:30:13.612Z,15664
2022-08-28T06:31:23.487Z,15084
2022-08-28T06:32:15.865Z,15188
2022-08-28T06:33:16.435Z,15544
2022-08-28T06:34:17.033Z,17440
2022-08-28T06:35:17.637Z,16872
2022-08-28T06:36:18.244Z,16684
2022-08-28T06:37:18.867Z,16064
2022-08-28T06:38:19.470Z,15720
2022-08-28T06:39:20.071Z,14920
2022-08-28T06:40:20.738Z,14788
2022-08-28T06:41:21.352Z,17216
2022-08-28T06:42:21.957Z,15596
2022-08-28T06:43:22.556Z,16684
2022-08-28T06:44:23.160Z,20224
2022-08-28T06:45:23.763Z,18752
2022-08-28T06:46:24.421Z,17856
2022-08-28T06:47:24.963Z,16656
2022-08-28T06:48:25.567Z,16752
2022-08-28T06:49:26.168Z,17252
2022-08-28T06:50:26.771Z,17868
2022-08-28T06:51:27.376Z,17892
2022-08-28T06:52:27.978Z,17836
2022-08-28T06:53:28.578Z,18560
2022-08-28T06:54:29.181Z,18496
2022-08-28T06:55:29.782Z,17188
2022-08-28T06:56:30.383Z,16384
2022-08-28T06:57:30.984Z,15876
2022-08-28T06:58:31.584Z,16472
2022-08-28T06:59:32.185Z,19424
2022-08-28T07:00:32.788Z,16928
2022-08-28T07:01:33.453Z,16532
2022-08-28T07:02:34.125Z,16872
2022-08-28T07:03:34.686Z,20960
2022-08-28T07:04:35.288Z,23744
2022-08-28T07:05:35.889Z,21056
2022-08-28T07:06:36.492Z,18432
2022-08-28T07:07:37.090Z,22528
2022-08-28T07:08:37.712Z,19456
2022-08-28T07:09:38.310Z,22240
2022-08-28T07:10:38.911Z,21312
2022-08-28T07:11:39.537Z,21632
2022-08-28T07:12:40.135Z,20384
2022-08-28T07:13:40.735Z,26496
2022-08-28T07:14:41.337Z,22304
2022-08-28T07:15:42.126Z,21952
2022-08-28T07:16:42.691Z,28576
2022-08-28T07:17:43.438Z,28128
2022-08-28T07:18:44.041Z,30720
2022-08-28T07:19:44.644Z,30688
2022-08-28T07:20:45.266Z,31488
2022-08-28T07:21:45.878Z,32448
2022-08-28T07:22:46.474Z,28224
2022-08-28T07:23:47.095Z,23872
2022-08-28T07:24:47.698Z,29952
2022-08-28T07:25:48.297Z,20192
2022-08-28T07:26:48.899Z,29664
2022-08-28T07:27:49.503Z,31680
2022-08-28T07:28:50.102Z,30656
2022-08-28T07:29:50.704Z,21472
2022-08-28T07:30:51.332Z,31488
2022-08-28T07:31:51.905Z,36736
2022-08-28T07:32:52.508Z,33632
2022-08-28T07:33:54.023Z,29504
2022-08-28T07:34:54.708Z,28256
2022-08-28T07:35:56.172Z,32032
2022-08-28T07:36:56.776Z,42688
2022-08-28T07:37:57.378Z,27168
2022-08-28T07:38:57.987Z,27904
2022-08-28T07:39:58.613Z,29344
2022-08-28T07:40:59.189Z,29536
2022-08-28T07:41:59.792Z,44096
2022-08-28T07:43:00.396Z,46144
2022-08-28T07:44:01.000Z,41216
2022-08-28T07:45:01.603Z,29344
2022-08-28T07:46:02.226Z,30688
2022-08-28T07:47:02.807Z,47648
2022-08-28T07:48:03.412Z,37184
2022-08-28T07:49:04.017Z,45632
2022-08-28T07:50:04.620Z,34592
2022-08-28T07:51:05.242Z,38176
2022-08-28T07:52:05.846Z,28640
2022-08-28T07:53:06.448Z,28192
2022-08-28T07:54:07.048Z,53920
2022-08-28T07:55:08.646Z,39904
2022-08-28T07:56:09.248Z,35104
2022-08-28T07:57:09.851Z,32096
2022-08-28T07:58:10.484Z,47200
2022-08-28T07:59:11.055Z,33504
2022-08-28T08:00:11.656Z,28832
2022-08-28T08:01:12.283Z,32992
2022-08-28T08:02:12.864Z,42432
2022-08-28T08:03:13.532Z,44896
2022-08-28T08:04:14.092Z,44544
2022-08-28T08:05:14.697Z,46912
2022-08-28T08:06:15.298Z,50368
2022-08-28T08:07:15.919Z,51680
2022-08-28T08:08:16.519Z,50528
2022-08-28T08:09:17.123Z,35200
2022-08-28T08:10:19.878Z,36320
2022-08-28T08:11:19.322Z,47264
2022-08-28T08:12:20.197Z,41504
2022-08-28T08:13:20.802Z,36224
2022-08-28T08:14:21.399Z,33824
2022-08-28T08:15:22.002Z,33568
2022-08-28T08:16:22.638Z,33728
2022-08-28T08:17:23.211Z,64512
2022-08-28T08:18:24.147Z,52416
2022-08-28T08:19:24.763Z,30400
2022-08-28T08:20:25.364Z,30304
2022-08-28T08:21:30.006Z,30656
2022-08-28T08:22:27.570Z,30560
2022-08-28T08:23:28.163Z,30016
2022-08-28T08:24:28.764Z,30176
2022-08-28T08:25:29.367Z,31072
2022-08-28T08:26:30.964Z,32928
2022-08-28T08:27:31.566Z,32960
2022-08-28T08:28:32.167Z,28032
2022-08-28T08:29:32.773Z,27648
2022-08-28T08:30:33.372Z,27648
2022-08-28T08:31:34.010Z,28608
2022-08-28T08:32:34.593Z,40800
2022-08-28T08:33:35.195Z,71200
2022-08-28T08:34:35.796Z,60288
2022-08-28T08:35:36.400Z,60928
2022-08-28T08:36:37.024Z,70080
2022-08-28T08:37:37.629Z,84288
2022-08-28T08:38:38.230Z,26048
2022-08-28T08:39:38.846Z,82720
2022-08-28T08:40:39.512Z,22912
2022-08-28T08:41:40.130Z,34496
2022-08-28T08:42:40.737Z,60256
2022-08-28T08:43:41.337Z,69152
2022-08-28T08:44:41.939Z,69120
2022-08-28T08:45:42.543Z,68256
2022-08-28T08:46:43.751Z,69792
2022-08-28T08:47:44.337Z,32704
2022-08-28T08:48:44.913Z,31616
2022-08-28T08:49:45.517Z,83520
2022-08-28T08:50:46.117Z,20704
2022-08-28T08:51:46.720Z,20672
2022-08-28T08:52:47.321Z,67904
2022-08-28T08:53:47.927Z,90112
2022-08-28T08:54:48.526Z,91552
2022-08-28T08:55:49.128Z,19584
2022-08-28T08:56:49.729Z,16888
2022-08-28T08:57:50.333Z,15908
2022-08-28T08:58:50.935Z,16408
2022-08-28T08:59:51.540Z,105472
2022-08-28T09:00:52.145Z,99616
2022-08-28T09:01:52.804Z,84896
2022-08-28T09:02:53.361Z,72448
2022-08-28T09:03:54.030Z,72896
2022-08-28T09:04:56.357Z,84192
2022-08-28T09:05:56.182Z,96800
2022-08-28T09:06:56.785Z,96672
2022-08-28T09:07:57.407Z,93632
2022-08-28T09:08:58.010Z,94208
2022-08-28T09:09:58.635Z,84608
2022-08-28T09:10:59.255Z,86016
2022-08-28T09:11:59.858Z,38400
2022-08-28T09:13:00.467Z,36128
2022-08-28T09:14:01.061Z,31200
2022-08-28T09:15:01.661Z,30144
2022-08-28T09:16:02.304Z,26144
2022-08-28T09:17:02.862Z,23168
2022-08-28T09:18:03.465Z,25024
2022-08-28T09:19:04.078Z,30880
2022-08-28T09:20:04.668Z,87072
2022-08-28T09:21:05.269Z,91488
2022-08-28T09:22:05.875Z,40288
2022-08-28T09:23:13.158Z,84832
2022-08-28T09:24:11.031Z,71616
2022-08-28T09:25:09.669Z,71840
2022-08-28T09:26:10.271Z,85600
2022-08-28T09:27:14.379Z,100768
2022-08-28T09:28:13.637Z,105184
2022-08-28T09:29:14.254Z,101024
2022-08-28T09:30:14.859Z,93568
2022-08-28T09:31:15.540Z,92800
2022-08-28T09:32:17.057Z,99904
2022-08-28T09:33:17.662Z,82496
2022-08-28T09:34:18.264Z,35168
2022-08-28T09:35:18.868Z,32672
2022-08-28T09:36:19.471Z,30912
2022-08-28T09:37:20.071Z,69568
2022-08-28T09:38:20.675Z,61024
2022-08-28T09:39:21.278Z,69408
2022-08-28T09:40:21.997Z,90944
2022-08-28T09:41:22.597Z,114080
2022-08-28T09:42:23.203Z,124832
2022-08-28T09:43:23.806Z,120640
2022-08-28T09:44:24.407Z,30752
2022-08-28T09:45:25.011Z,108864
2022-08-28T09:46:25.632Z,66784
2022-08-28T09:47:26.243Z,45120
2022-08-28T09:48:26.846Z,30752
2022-08-28T09:49:27.446Z,32864
2022-08-28T09:50:28.050Z,99712
2022-08-28T09:51:28.651Z,87872
2022-08-28T09:52:29.257Z,92864
2022-08-28T09:53:29.859Z,53856
2022-08-28T09:54:30.465Z,117472
2022-08-28T09:55:31.069Z,74496
2022-08-28T09:56:31.669Z,44352
2022-08-28T09:57:32.272Z,47072
2022-08-28T09:58:32.873Z,35456
2022-08-28T09:59:33.477Z,30528
2022-08-28T10:00:34.079Z,33856
2022-08-28T10:01:34.725Z,26208
2022-08-28T10:02:35.286Z,22048
2022-08-28T10:03:35.890Z,75520
2022-08-28T10:04:36.542Z,80192
2022-08-28T10:05:37.129Z,91456
2022-08-28T10:06:37.736Z,100640
2022-08-28T10:07:38.339Z,101632
2022-08-28T10:08:38.940Z,96384
2022-08-28T10:09:39.544Z,91168
2022-08-28T10:10:41.139Z,96032
2022-08-28T10:11:44.312Z,111552
2022-08-28T10:12:43.339Z,112224
2022-08-28T10:13:43.941Z,75680
2022-08-28T10:14:44.544Z,113760
2022-08-28T10:15:45.209Z,44672
2022-08-28T10:16:45.766Z,43776
2022-08-28T10:17:46.369Z,40864
2022-08-28T10:18:46.973Z,46272
2022-08-28T10:19:47.575Z,119488
2022-08-28T10:20:48.177Z,42336
2022-08-28T10:21:49.020Z,73280
2022-08-28T10:22:49.640Z,88096
2022-08-28T10:23:50.245Z,72672
2022-08-28T10:24:50.892Z,98976
2022-08-28T10:25:51.512Z,97440
2022-08-28T10:26:52.116Z,95584
2022-08-28T10:27:52.718Z,79264
2022-08-28T10:28:53.315Z,96128
2022-08-28T10:29:53.938Z,89184
2022-08-28T10:30:54.584Z,108544
2022-08-28T10:31:55.164Z,111392
2022-08-28T10:32:55.766Z,77408
2022-08-28T10:33:56.369Z,38752
2022-08-28T10:34:56.971Z,39424
2022-08-28T10:35:57.578Z,36512
2022-08-28T10:36:58.180Z,33344
2022-08-28T10:37:58.784Z,64512
2022-08-28T10:38:59.385Z,71520
2022-08-28T10:40:00.043Z,104448
2022-08-28T10:41:00.595Z,74944
2022-08-28T10:42:01.198Z,50176
2022-08-28T10:43:01.803Z,122336
2022-08-28T10:44:02.430Z,148384
2022-08-28T10:45:03.031Z,40736
2022-08-28T10:46:03.694Z,64864
2022-08-28T10:47:04.298Z,41216
2022-08-28T10:48:04.901Z,31552
2022-08-28T10:49:05.503Z,102912
2022-08-28T10:50:06.108Z,106048
2022-08-28T10:51:06.712Z,127968
2022-08-28T10:52:07.319Z,150528
2022-08-28T10:53:07.921Z,162336
2022-08-28T10:54:08.528Z,156096
2022-08-28T10:55:09.131Z,128544
2022-08-28T10:56:09.732Z,96768
2022-08-28T10:57:10.334Z,80928
2022-08-28T10:58:25.158Z,89120
2022-08-28T10:59:11.557Z,114368
2022-08-28T11:00:12.168Z,128608
2022-08-28T11:01:12.807Z,122656
2022-08-28T11:02:13.409Z,119776
2022-08-28T11:03:33.031Z,104960
2022-08-28T11:04:15.572Z,44000
2022-08-28T11:05:16.174Z,42528
2022-08-28T11:06:16.777Z,39968
2022-08-28T11:07:17.380Z,90688
2022-08-28T11:08:17.985Z,161056
2022-08-28T11:09:18.591Z,140928
2022-08-28T11:10:19.199Z,100608
2022-08-28T11:11:19.800Z,65568
2022-08-28T11:12:20.404Z,59008
2022-08-28T11:13:21.008Z,78784
2022-08-28T11:14:21.612Z,98336
2022-08-28T11:15:22.215Z,37504
2022-08-28T11:16:22.844Z,41248
2022-08-28T11:17:23.423Z,52256
2022-08-28T11:18:25.295Z,34624
2022-08-28T11:19:25.623Z,30560
2022-08-28T11:20:26.227Z,31296
2022-08-28T11:21:26.831Z,33312
2022-08-28T11:22:27.438Z,41856
2022-08-28T11:23:28.064Z,114208
2022-08-28T11:24:28.667Z,118496
2022-08-28T11:25:32.703Z,132640
2022-08-28T11:26:30.868Z,142464
2022-08-28T11:27:32.465Z,107200
2022-08-28T11:28:33.068Z,61600
2022-08-28T11:29:33.672Z,94336
2022-08-28T11:30:34.320Z,77376
2022-08-28T11:31:34.936Z,62560
2022-08-28T11:32:35.509Z,54752
2022-08-28T11:33:36.113Z,65472
2022-08-28T11:34:36.717Z,91808
2022-08-28T11:35:37.321Z,118880
2022-08-28T11:36:37.928Z,127232
2022-08-28T11:37:38.530Z,113856
2022-08-28T11:38:39.134Z,91456
2022-08-28T11:39:39.736Z,76544
2022-08-28T11:40:40.434Z,79424
2022-08-28T11:41:41.002Z,102304
2022-08-28T11:42:41.606Z,32224
2022-08-28T11:43:42.209Z,33536
2022-08-28T11:44:42.813Z,117312
2022-08-28T11:45:46.591Z,126112
2022-08-28T11:46:45.014Z,107840
2022-08-28T11:47:45.616Z,108992
2022-08-28T11:48:46.221Z,129920
2022-08-28T11:49:46.827Z,156928
2022-08-28T11:50:47.433Z,166368
2022-08-28T11:51:48.071Z,160480
2022-08-28T11:52:48.679Z,131072
2022-08-28T11:53:49.283Z,100992
2022-08-28T11:54:49.906Z,84224
2022-08-28T11:55:50.509Z,95104
2022-08-28T11:56:51.114Z,120128
2022-08-28T11:57:51.719Z,133984
2022-08-28T11:58:52.344Z,129696
2022-08-28T11:59:53.422Z,106176
2022-08-28T12:00:54.027Z,85120
2022-08-28T12:01:54.626Z,68448
2022-08-28T12:02:55.301Z,70112
2022-08-28T12:03:55.972Z,91584
2022-08-28T12:04:56.558Z,115104
2022-08-28T12:05:57.161Z,126144
2022-08-28T12:06:57.787Z,122976
2022-08-28T12:07:58.392Z,110368
2022-08-28T12:08:58.997Z,96608
2022-08-28T12:10:04.263Z,82944
2022-08-28T12:11:01.198Z,119104
2022-08-28T12:12:01.803Z,137856
2022-08-28T12:13:02.429Z,56000
2022-08-28T12:14:03.018Z,35744
2022-08-28T12:15:03.633Z,62720
2022-08-28T12:16:04.271Z,84832
2022-08-28T12:17:04.862Z,102656
2022-08-28T12:18:05.464Z,110496
2022-08-28T12:19:06.072Z,122592
2022-08-28T12:20:06.675Z,130816
2022-08-28T12:21:07.369Z,130688
2022-08-28T12:22:07.988Z,125888
2022-08-28T12:23:08.660Z,113312
2022-08-28T12:24:10.052Z,102592
2022-08-28T12:25:10.811Z,104192
2022-08-28T12:26:11.415Z,116224
2022-08-28T12:27:12.019Z,124768
2022-08-28T12:28:13.064Z,125888
2022-08-28T12:29:13.245Z,123392
2022-08-28T12:30:13.845Z,121248
2022-08-28T12:31:14.485Z,118720
2022-08-28T12:32:15.088Z,118432
2022-08-28T12:33:15.687Z,118144
2022-08-28T12:34:16.291Z,113568
2022-08-28T12:35:16.980Z,102976
2022-08-28T12:36:17.563Z,90816
2022-08-28T12:37:18.169Z,84928
2022-08-28T12:38:18.772Z,82048
2022-08-28T12:39:19.377Z,81280
2022-08-28T12:40:20.015Z,85120
2022-08-28T12:41:21.000Z,88096
2022-08-28T12:42:21.637Z,86080
2022-08-28T12:43:22.244Z,82336
2022-08-28T12:44:23.733Z,84000
2022-08-28T12:45:24.339Z,96224
2022-08-28T12:46:24.979Z,110208
2022-08-28T12:47:25.568Z,122592
2022-08-28T12:48:26.174Z,122560
2022-08-28T12:49:26.795Z,82816
2022-08-28T12:50:27.399Z,102144
2022-08-28T12:51:28.003Z,53088
2022-08-28T12:52:28.607Z,107808
2022-08-28T12:53:29.218Z,117664
2022-08-28T12:54:29.819Z,123840
2022-08-28T12:55:30.424Z,126944
2022-08-28T12:56:31.028Z,124992
2022-08-28T12:57:31.631Z,123712
2022-08-28T12:58:32.236Z,128256
2022-08-28T12:59:32.842Z,127520
2022-08-28T13:00:33.466Z,118720
2022-08-28T13:01:34.217Z,105664
2022-08-28T13:02:35.032Z,98016
2022-08-28T13:03:35.624Z,93600
2022-08-28T13:04:36.225Z,95776
2022-08-28T13:05:36.831Z,101856
2022-08-28T13:06:37.432Z,110272
2022-08-28T13:07:38.040Z,96256
2022-08-28T13:08:38.657Z,41984
2022-08-28T13:09:39.261Z,95104
2022-08-28T13:10:39.863Z,82432
2022-08-28T13:11:40.468Z,104480
2022-08-28T13:12:54.798Z,113184
2022-08-28T13:13:42.673Z,109280
2022-08-28T13:14:43.274Z,98944
2022-08-28T13:15:43.883Z,91360
2022-08-28T13:16:44.518Z,91360
2022-08-28T13:17:45.096Z,102272
2022-08-28T13:18:45.722Z,119584
2022-08-28T13:19:46.327Z,130240
2022-08-28T13:20:46.933Z,127232
2022-08-28T13:21:47.560Z,107424
2022-08-28T13:22:50.858Z,86080
2022-08-28T13:23:49.757Z,81920
2022-08-28T13:24:50.360Z,42240
2022-08-28T13:25:50.965Z,54112
2022-08-28T13:26:51.571Z,62944
2022-08-28T13:27:52.175Z,46880
2022-08-28T13:28:52.790Z,36704
2022-08-28T13:29:57.325Z,41792
2022-08-28T13:30:55.011Z,127776
2022-08-28T13:31:55.583Z,120544
2022-08-28T13:32:56.187Z,43808
2022-08-28T13:33:56.793Z,123744
2022-08-28T13:34:57.402Z,145664